createdAt,value
2022-12-14T00:01:36.975Z,30.30
2022-12-14T00:04:04.017Z,29.48
2022-12-14T00:06:32.745Z,28.65
2022-12-14T00:09:01.963Z,29.35
2022-12-14T00:11:28.812Z,28.88
2022-12-14T00:14:01.160Z,28.45
2022-12-14T00:16:30.083Z,29.65
2022-12-14T00:18:58.890Z,31.38
2022-12-14T00:21:26.948Z,30.20
2022-12-14T00:23:54.550Z,31.40
2022-12-14T00:26:23.770Z,35.25
2022-12-14T00:28:52.457Z,29.10
2022-12-14T00:31:20.629Z,31.23
2022-12-14T00:33:47.625Z,28.45
2022-12-14T00:36:14.783Z,28.98
2022-12-14T00:38:42.424Z,30.40
2022-12-14T00:41:10.650Z,27.33
2022-12-14T00:43:38.106Z,28.98
2022-12-14T00:46:05.438Z,30.52
2022-12-14T00:48:32.855Z,30.65
2022-12-14T00:50:59.954Z,28.15
2022-12-14T00:53:26.837Z,29.10
2022-12-14T00:55:53.657Z,29.50
2022-12-14T00:58:22.680Z,31.42
2022-12-14T01:01:04.151Z,33.00
2022-12-14T01:03:31.740Z,29.30
2022-12-14T01:05:59.070Z,33.50
2022-12-14T01:08:25.823Z,32.22
2022-12-14T01:10:53.182Z,34.30
2022-12-14T01:13:19.961Z,36.72
2022-12-14T01:15:46.971Z,30.83
2022-12-14T01:18:13.980Z,30.15
2022-12-14T01:20:40.757Z,32.60
2022-12-14T01:23:07.753Z,28.98
2022-12-14T01:25:34.543Z,30.23
2022-12-14T01:28:01.474Z,32.97
2022-12-14T01:30:28.168Z,33.35
2022-12-14T01:32:55.049Z,32.05
2022-12-14T01:35:21.820Z,32.92
2022-12-14T01:37:49.191Z,35.00
2022-12-14T01:40:16.489Z,34.88
2022-12-14T01:42:43.431Z,35.78
2022-12-14T01:45:22.046Z,33.28
2022-12-14T01:47:55.097Z,38.17
2022-12-14T01:50:37.078Z,35.78
2022-12-14T01:53:12.233Z,33.88
2022-12-14T01:55:49.068Z,29.30
2022-12-14T01:58:18.665Z,36.63
2022-12-14T02:00:45.533Z,33.00
2022-12-14T02:03:23.427Z,36.53
2022-12-14T02:05:59.274Z,34.92
2022-12-14T02:08:26.736Z,34.97
2022-12-14T02:10:55.621Z,32.30
2022-12-14T02:13:35.552Z,31.52
2022-12-14T02:16:02.549Z,35.83
2022-12-14T02:18:31.393Z,32.67
2022-12-14T02:21:07.012Z,30.00
2022-12-14T02:23:57.666Z,32.15
2022-12-14T02:26:55.234Z,32.25
2022-12-14T02:29:24.695Z,33.45
2022-12-14T02:32:11.072Z,30.83
2022-12-14T02:35:05.536Z,38.13
2022-12-14T02:37:32.198Z,37.55
2022-12-14T02:40:05.771Z,31.73
2022-12-14T02:42:45.761Z,33.97
2022-12-14T02:45:37.041Z,32.25
2022-12-14T02:48:10.161Z,34.88
2022-12-14T02:51:01.272Z,29.17
2022-12-14T02:54:23.895Z,33.60
2022-12-14T02:56:56.328Z,33.35
2022-12-14T02:59:24.773Z,31.83
2022-12-14T03:01:52.683Z,30.30
2022-12-14T03:04:20.461Z,32.55
2022-12-14T03:07:02.695Z,33.35
2022-12-14T03:09:31.585Z,29.23
2022-12-14T03:12:07.438Z,30.02
2022-12-14T03:14:45.852Z,36.70
2022-12-14T03:17:23.823Z,34.38
2022-12-14T03:19:55.944Z,34.78
2022-12-14T03:22:47.937Z,34.25
2022-12-14T03:25:19.759Z,36.10
2022-12-14T03:28:03.645Z,32.70
2022-12-14T03:30:58.923Z,24.90
2022-12-14T03:33:23.919Z,33.35
2022-12-14T03:36:00.027Z,35.15
2022-12-14T03:38:48.862Z,34.17
2022-12-14T03:41:24.552Z,33.60
2022-12-14T03:43:54.378Z,36.47
2022-12-14T03:46:31.906Z,31.92
2022-12-14T03:49:20.293Z,32.38
2022-12-14T03:52:22.446Z,32.75
2022-12-14T03:55:06.040Z,32.00
2022-12-14T03:57:54.287Z,26.37
2022-12-14T04:00:23.580Z,32.55
2022-12-14T04:03:10.473Z,35.72
2022-12-14T04:05:49.147Z,37.83
2022-12-14T04:08:24.792Z,36.42
2022-12-14T04:11:13.885Z,33.88
2022-12-14T04:14:03.895Z,39.00
2022-12-14T04:16:54.056Z,36.65
2022-12-14T04:19:31.808Z,33.88
2022-12-14T04:22:04.579Z,38.30
2022-12-14T04:25:12.943Z,35.85
2022-12-14T04:27:54.934Z,37.85
2022-12-14T04:30:23.139Z,37.00
2022-12-14T04:32:49.889Z,35.75
2022-12-14T04:35:32.100Z,34.20
2022-12-14T04:38:13.537Z,39.45
2022-12-14T04:40:53.497Z,34.00
2022-12-14T04:43:24.258Z,34.88
2022-12-14T04:46:14.685Z,35.45
2022-12-14T04:49:18.778Z,35.72
2022-12-14T04:52:01.970Z,34.72
2022-12-14T04:57:38.784Z,38.92
2022-12-14T05:00:05.457Z,34.90
2022-12-14T05:02:50.340Z,37.60
2022-12-14T05:05:27.801Z,37.17
2022-12-14T05:08:01.839Z,37.25
2022-12-14T05:11:21.815Z,37.80
2022-12-14T05:13:50.426Z,38.92
2022-12-14T05:16:23.287Z,39.42
2022-12-14T05:18:50.164Z,37.22
2022-12-14T05:21:35.608Z,34.90
2022-12-14T05:24:04.286Z,36.60
2022-12-14T05:26:31.479Z,39.88
2022-12-14T05:28:58.225Z,35.88
2022-12-14T05:31:25.811Z,38.30
2022-12-14T05:37:43.311Z,37.45
2022-12-14T05:40:11.177Z,36.42
2022-12-14T05:42:42.726Z,39.42
2022-12-14T05:45:15.348Z,37.15
2022-12-14T05:47:41.969Z,37.90
2022-12-14T05:50:09.045Z,36.38
2022-12-14T05:52:35.709Z,38.45
2022-12-14T05:55:04.377Z,38.28
2022-12-14T05:57:31.994Z,36.53
2022-12-14T05:59:58.618Z,39.97
2022-12-14T06:02:25.339Z,37.65
2022-12-14T06:04:52.241Z,38.50
2022-12-14T06:07:21.771Z,37.47
2022-12-14T06:09:52.613Z,38.22
2022-12-14T06:12:19.335Z,34.35
2022-12-14T06:16:28.285Z,35.65
2022-12-14T06:18:56.630Z,38.72
2022-12-14T06:21:25.976Z,37.00
2022-12-14T06:23:52.951Z,41.20
2022-12-14T06:26:19.859Z,37.80
2022-12-14T06:28:46.519Z,37.00
2022-12-14T06:31:19.044Z,37.92
2022-12-14T06:33:46.241Z,33.85
2022-12-14T06:36:23.566Z,35.08
2022-12-14T06:38:51.571Z,36.08
2022-12-14T06:41:25.611Z,38.90
2022-12-14T06:43:53.643Z,37.58
2022-12-14T06:46:22.275Z,37.95
2022-12-14T06:48:54.277Z,39.15
2022-12-14T06:51:22.758Z,39.90
2022-12-14T06:53:54.599Z,40.28
2022-12-14T06:56:22.755Z,36.85
2022-12-14T06:58:49.838Z,42.08
2022-12-14T07:01:19.435Z,41.63
2022-12-14T07:03:55.111Z,35.72
2022-12-14T07:06:27.121Z,40.03
2022-12-14T07:08:55.565Z,36.15
2022-12-14T07:11:22.570Z,38.65
2022-12-14T07:13:49.367Z,39.03
2022-12-14T07:16:19.666Z,35.60
2022-12-14T07:18:46.737Z,38.25
2022-12-14T07:21:15.347Z,39.75
2022-12-14T07:23:43.656Z,39.55
2022-12-14T07:26:27.675Z,39.60
2022-12-14T07:28:55.087Z,40.15
2022-12-14T07:31:27.132Z,38.80
2022-12-14T07:33:59.421Z,38.83
2022-12-14T07:36:28.226Z,40.38
2022-12-14T07:38:56.031Z,40.20
2022-12-14T07:41:29.409Z,40.42
2022-12-14T07:43:56.572Z,40.03
2022-12-14T07:46:26.707Z,39.35
2022-12-14T07:48:56.123Z,41.65
2022-12-14T07:51:26.685Z,34.60
2022-12-14T07:53:53.592Z,40.47
2022-12-14T07:56:23.403Z,38.20
2022-12-14T07:58:50.295Z,39.40
2022-12-14T08:01:22.287Z,41.53
2022-12-14T08:03:55.320Z,41.08
2022-12-14T08:06:24.411Z,43.90
2022-12-14T08:08:52.460Z,39.38
2022-12-14T08:11:22.280Z,40.50
2022-12-14T08:13:54.011Z,38.50
2022-12-14T08:16:21.285Z,36.97
2022-12-14T08:18:48.052Z,41.35
2022-12-14T08:21:15.772Z,37.42
2022-12-14T08:23:42.548Z,41.97
2022-12-14T08:26:12.670Z,39.92
2022-12-14T08:28:39.413Z,38.80
2022-12-14T08:31:13.975Z,38.75
2022-12-14T08:33:41.708Z,39.80
2022-12-14T08:36:10.761Z,39.60
2022-12-14T08:38:38.878Z,37.20
2022-12-14T08:41:11.204Z,44.42
2022-12-14T08:43:38.839Z,37.92
2022-12-14T08:46:06.328Z,37.72
2022-12-14T08:48:32.980Z,42.92
2022-12-14T08:51:04.602Z,38.63
2022-12-14T08:53:32.157Z,36.55
2022-12-14T08:56:04.941Z,37.28
2022-12-14T08:58:31.644Z,40.75
2022-12-14T09:01:03.504Z,41.55
2022-12-14T09:03:30.727Z,38.03
2022-12-14T09:06:01.086Z,38.53
2022-12-14T09:08:27.916Z,39.15
2022-12-14T09:10:54.626Z,38.00
2022-12-14T09:13:21.346Z,36.25
2022-12-14T09:15:59.932Z,39.85
2022-12-14T09:18:28.011Z,40.08
2022-12-14T09:20:55.904Z,37.10
2022-12-14T09:23:24.356Z,38.80
2022-12-14T09:26:14.452Z,39.78
2022-12-14T09:28:42.881Z,38.00
2022-12-14T09:31:14.468Z,41.38
2022-12-14T09:33:41.741Z,40.88
2022-12-14T09:36:19.766Z,41.75
2022-12-14T09:38:50.889Z,37.05
2022-12-14T09:41:34.663Z,37.30
2022-12-14T09:44:24.836Z,37.15
2022-12-14T09:47:17.948Z,39.28
2022-12-14T09:50:10.245Z,39.38
2022-12-14T09:52:40.061Z,43.30
2022-12-14T09:55:34.384Z,39.15
2022-12-14T09:58:32.517Z,35.10
2022-12-14T10:01:22.794Z,37.03
2022-12-14T10:04:09.383Z,39.03
2022-12-14T10:07:10.479Z,42.40
2022-12-14T10:09:37.186Z,40.53
2022-12-14T10:12:22.563Z,38.15
2022-12-14T10:14:52.109Z,38.45
2022-12-14T10:17:31.212Z,39.17
2022-12-14T10:20:04.759Z,45.10
2022-12-14T10:22:46.612Z,31.52
2022-12-14T10:25:18.228Z,40.88
2022-12-14T10:28:13.835Z,39.78
2022-12-14T10:30:42.481Z,44.97
2022-12-14T10:33:31.480Z,40.33
2022-12-14T10:36:23.109Z,39.42
2022-12-14T10:39:02.457Z,37.78
2022-12-14T10:41:59.436Z,38.53
2022-12-14T10:44:44.487Z,40.05
2022-12-14T10:47:29.796Z,37.13
2022-12-14T10:50:22.280Z,38.70
2022-12-14T10:52:53.529Z,39.30
2022-12-14T10:55:32.681Z,40.72
2022-12-14T10:58:00.781Z,42.05
2022-12-14T11:00:28.026Z,38.70
2022-12-14T11:02:57.611Z,38.45
2022-12-14T11:05:38.533Z,41.15
2022-12-14T11:08:07.564Z,38.78
2022-12-14T11:10:37.078Z,38.63
2022-12-14T11:13:16.983Z,39.42
2022-12-14T11:15:49.708Z,39.85
2022-12-14T11:18:16.545Z,41.67
2022-12-14T11:21:01.466Z,48.05
2022-12-14T11:23:29.554Z,46.90
2022-12-14T11:26:01.249Z,44.53
2022-12-14T11:28:37.914Z,39.92
2022-12-14T11:31:25.102Z,51.42
2022-12-14T11:33:54.982Z,46.83
2022-12-14T11:36:41.670Z,45.45
2022-12-14T11:39:14.530Z,42.42
2022-12-14T11:41:44.685Z,47.38
2022-12-14T11:44:14.412Z,40.28
2022-12-14T11:46:59.298Z,41.95
2022-12-14T11:49:33.559Z,40.92
2022-12-14T11:54:41.032Z,52.25
2022-12-14T11:57:14.022Z,65.55
2022-12-14T12:00:00.119Z,51.92
2022-12-14T12:02:49.041Z,56.63
2022-12-14T12:05:19.735Z,60.65
2022-12-14T12:07:49.476Z,57.70
2022-12-14T12:10:36.286Z,46.63
2022-12-14T12:13:17.180Z,46.28
2022-12-14T12:15:54.506Z,42.80
2022-12-14T12:18:31.567Z,46.97
2022-12-14T12:21:18.337Z,47.92
2022-12-14T12:24:06.797Z,50.35
2022-12-14T12:27:12.114Z,45.90
2022-12-14T12:32:41.956Z,48.03
2022-12-14T12:35:23.157Z,48.53
2022-12-14T12:38:16.877Z,53.67
2022-12-14T12:40:43.514Z,64.20
2022-12-14T12:43:20.287Z,62.58
2022-12-14T12:45:53.691Z,48.97
2022-12-14T12:48:29.841Z,37.80
2022-12-14T12:51:07.258Z,48.28
2022-12-14T12:53:39.929Z,44.80
2022-12-14T12:56:23.292Z,48.83
2022-12-14T12:58:53.193Z,49.72
2022-12-14T13:01:38.978Z,51.05
2022-12-14T13:04:10.939Z,57.35
2022-12-14T13:06:53.193Z,75.55
2022-12-14T13:09:35.275Z,57.72
2022-12-14T13:12:03.657Z,53.05
2022-12-14T13:14:44.349Z,49.45
2022-12-14T13:17:25.341Z,55.53
2022-12-14T13:19:55.425Z,55.42
2022-12-14T13:22:29.290Z,55.85
2022-12-14T13:25:02.871Z,43.40
2022-12-14T13:27:37.389Z,58.65
2022-12-14T13:30:34.794Z,54.30
2022-12-14T13:33:07.312Z,53.70
2022-12-14T13:35:53.591Z,50.88
2022-12-14T13:38:33.768Z,47.80
2022-12-14T13:41:13.029Z,48.60
2022-12-14T13:44:31.088Z,47.47
2022-12-14T13:47:06.136Z,42.47
2022-12-14T13:49:34.034Z,47.78
2022-12-14T13:52:01.309Z,48.50
2022-12-14T13:54:35.434Z,46.92
2022-12-14T13:57:06.543Z,49.60
2022-12-14T13:59:38.091Z,43.45
2022-12-14T14:02:06.716Z,48.35
2022-12-14T14:04:35.859Z,41.65
2022-12-14T14:07:24.558Z,40.97
2022-12-14T14:10:05.996Z,39.95
2022-12-14T14:12:34.443Z,39.75
2022-12-14T14:15:26.904Z,40.58
2022-12-14T14:17:55.185Z,37.00
2022-12-14T14:20:30.857Z,36.80
2022-12-14T14:23:18.542Z,38.83
2022-12-14T14:26:10.163Z,40.10
2022-12-14T14:28:38.147Z,40.15
2022-12-14T14:31:05.636Z,41.35
2022-12-14T14:33:48.953Z,70.03
2022-12-14T14:36:33.372Z,70.43
2022-12-14T14:39:02.504Z,75.88
2022-12-14T14:41:38.173Z,68.57
2022-12-14T14:44:16.133Z,93.80
2022-12-14T14:46:47.165Z,65.68
2022-12-14T14:49:28.891Z,74.57
2022-12-14T14:51:55.775Z,68.72
2022-12-14T14:55:11.126Z,50.38
2022-12-14T14:57:34.425Z,49.42
2022-12-14T15:00:03.579Z,40.70
2022-12-14T15:02:34.254Z,40.08
2022-12-14T15:07:49.204Z,44.25
2022-12-14T15:10:22.927Z,37.47
2022-12-14T15:12:53.463Z,45.05
2022-12-14T15:15:32.284Z,47.72
2022-12-14T15:18:24.228Z,46.80
2022-12-14T15:21:02.519Z,46.53
2022-12-14T15:23:36.704Z,54.35
2022-12-14T15:26:16.233Z,50.65
2022-12-14T15:28:46.208Z,45.95
2022-12-14T15:31:13.761Z,44.42
2022-12-14T15:33:43.230Z,51.42
2022-12-14T15:36:16.993Z,45.80
2022-12-14T15:38:55.637Z,37.90
2022-12-14T15:41:25.526Z,47.67
2022-12-14T15:43:55.096Z,43.03
2022-12-14T15:46:33.256Z,43.15
2022-12-14T15:49:08.238Z,44.60
2022-12-14T15:51:42.074Z,41.60
2022-12-14T15:54:18.052Z,45.35
2022-12-14T15:56:47.432Z,49.10
2022-12-14T15:59:21.340Z,46.47
2022-12-14T16:01:55.941Z,43.38
2022-12-14T16:04:27.968Z,44.22
2022-12-14T16:07:08.950Z,47.05
2022-12-14T16:09:50.007Z,43.33
2022-12-14T16:12:44.212Z,40.38
2022-12-14T16:15:24.191Z,47.92
2022-12-14T16:17:59.262Z,42.53
2022-12-14T16:20:31.958Z,39.40
2022-12-14T16:23:22.261Z,43.38
2022-12-14T16:26:15.604Z,44.80
2022-12-14T16:28:42.822Z,55.65
2022-12-14T16:31:24.238Z,47.60
2022-12-14T16:34:18.932Z,48.15
2022-12-14T16:37:08.066Z,42.03
2022-12-14T16:39:46.356Z,42.45
2022-12-14T16:42:24.771Z,44.33
2022-12-14T16:44:54.092Z,46.45
2022-12-14T16:47:20.867Z,43.67
2022-12-14T16:49:55.120Z,46.97
2022-12-14T16:55:16.213Z,44.20
2022-12-14T16:57:48.991Z,67.70
2022-12-14T17:00:38.586Z,46.50
2022-12-14T17:03:23.215Z,42.17
2022-12-14T17:05:53.909Z,40.30
2022-12-14T17:08:20.669Z,41.15
2022-12-14T17:10:47.396Z,48.50
2022-12-14T17:13:14.291Z,46.92
2022-12-14T17:16:01.368Z,46.03
2022-12-14T17:18:33.389Z,45.30
2022-12-14T17:21:01.316Z,44.05
2022-12-14T17:23:28.916Z,44.72
2022-12-14T17:25:55.774Z,45.92
2022-12-14T17:28:27.173Z,45.92
2022-12-14T17:30:57.366Z,42.50
2022-12-14T17:33:28.781Z,41.65
2022-12-14T17:35:56.185Z,42.95
2022-12-14T17:38:23.609Z,47.33
2022-12-14T17:40:51.553Z,50.72
2022-12-14T17:43:21.842Z,48.85
2022-12-14T17:45:48.570Z,45.90
2022-12-14T17:48:17.403Z,47.22
2022-12-14T17:50:47.632Z,45.03
2022-12-14T17:53:17.206Z,43.35
2022-12-14T17:55:44.331Z,49.55
2022-12-14T17:58:11.540Z,46.63
2022-12-14T18:01:03.063Z,57.75
2022-12-14T18:03:36.174Z,66.72
2022-12-14T18:06:04.603Z,47.22
2022-12-14T18:08:31.423Z,73.75
2022-12-14T18:11:01.654Z,70.47
2022-12-14T18:13:31.306Z,78.78
2022-12-14T18:16:00.139Z,82.65
2022-12-14T18:18:29.399Z,90.30
2022-12-14T18:21:01.832Z,61.25
2022-12-14T18:23:29.908Z,83.32
2022-12-14T18:25:59.280Z,76.47
2022-12-14T18:28:26.405Z,82.10
2022-12-14T18:31:06.586Z,76.32
2022-12-14T18:33:35.194Z,63.53
2022-12-14T18:36:02.029Z,67.05
2022-12-14T18:38:28.874Z,73.28
2022-12-14T18:40:58.594Z,84.82
2022-12-14T18:43:27.973Z,103.63
2022-12-14T18:45:56.274Z,72.95
2022-12-14T18:48:24.768Z,73.70
2022-12-14T18:50:53.904Z,77.00
2022-12-14T18:53:23.169Z,124.65
2022-12-14T18:55:50.254Z,108.97
2022-12-14T18:58:20.284Z,71.82
2022-12-14T19:00:47.511Z,62.00
2022-12-14T19:03:15.455Z,72.63
2022-12-14T19:05:42.344Z,66.88
2022-12-14T19:08:10.472Z,50.08
2022-12-14T19:10:42.468Z,69.28
2022-12-14T19:13:23.250Z,66.88
2022-12-14T19:15:52.143Z,62.95
2022-12-14T19:18:18.935Z,54.35
2022-12-14T19:20:45.870Z,63.38
2022-12-14T19:23:17.842Z,57.17
2022-12-14T19:25:45.325Z,53.00
2022-12-14T19:28:32.586Z,50.88
2022-12-14T19:30:59.751Z,49.88
2022-12-14T19:33:26.786Z,50.38
2022-12-14T19:35:54.233Z,53.78
2022-12-14T19:38:20.941Z,51.95
2022-12-14T19:41:03.231Z,48.70
2022-12-14T19:43:30.944Z,42.38
2022-12-14T19:45:58.529Z,43.85
2022-12-14T19:48:25.353Z,41.00
2022-12-14T19:50:52.244Z,40.15
2022-12-14T19:53:23.792Z,38.75
2022-12-14T19:55:52.781Z,41.17
2022-12-14T19:58:21.912Z,41.88
2022-12-14T20:00:49.964Z,42.47
2022-12-14T20:03:17.045Z,44.75
2022-12-14T20:06:04.788Z,42.70
2022-12-14T20:08:33.160Z,47.90
2022-12-14T20:11:04.904Z,41.83
2022-12-14T20:13:32.030Z,42.80
2022-12-14T20:15:59.389Z,44.95
2022-12-14T20:18:27.541Z,41.80
2022-12-14T20:21:02.278Z,37.78
2022-12-14T20:23:29.423Z,34.55
2022-12-14T20:26:01.098Z,33.53
2022-12-14T20:28:28.178Z,34.38
2022-12-14T20:30:54.984Z,40.60
2022-12-14T20:33:26.496Z,37.95
2022-12-14T20:35:56.758Z,33.67
2022-12-14T20:38:23.506Z,33.03
2022-12-14T20:40:50.280Z,31.70
2022-12-14T20:43:17.027Z,35.70
2022-12-14T20:45:44.192Z,33.15
2022-12-14T20:48:11.654Z,33.25
2022-12-14T20:50:40.668Z,31.65
2022-12-14T20:53:07.414Z,32.15
2022-12-14T20:55:35.313Z,30.05
2022-12-14T20:58:02.099Z,29.83
2022-12-14T21:00:28.871Z,25.60
2022-12-14T21:02:55.794Z,29.17
2022-12-14T21:05:22.631Z,26.60
2022-12-14T21:07:49.401Z,31.02
2022-12-14T21:10:16.143Z,26.85
2022-12-14T21:12:42.882Z,28.00
2022-12-14T21:15:09.736Z,28.20
2022-12-14T21:17:36.565Z,29.23
2022-12-14T21:20:05.403Z,28.17
2022-12-14T21:22:32.541Z,28.50
2022-12-14T21:25:06.794Z,27.88
2022-12-14T21:27:38.885Z,26.63
2022-12-14T21:30:10.900Z,22.73
2022-12-14T21:32:38.200Z,23.25
2022-12-14T21:35:05.828Z,31.02
2022-12-14T21:37:32.660Z,22.40
2022-12-14T21:40:00.258Z,23.80
2022-12-14T21:42:27.019Z,22.15
2022-12-14T21:44:55.253Z,22.80
2022-12-14T21:47:28.268Z,23.92
2022-12-14T21:49:55.720Z,25.95
2022-12-14T21:52:25.182Z,25.35
2022-12-14T21:54:51.917Z,27.48
2022-12-14T21:57:40.088Z,27.90
2022-12-14T22:00:08.569Z,25.23
2022-12-14T22:02:35.536Z,25.90
2022-12-14T22:05:02.547Z,26.55
2022-12-14T22:07:31.795Z,28.05
2022-12-14T22:09:58.830Z,26.73
2022-12-14T22:12:25.902Z,26.23
2022-12-14T22:14:52.748Z,26.75
2022-12-14T22:17:19.473Z,28.08
2022-12-14T22:19:46.412Z,28.85
2022-12-14T22:22:17.879Z,28.48
2022-12-14T22:24:47.830Z,28.58
2022-12-14T22:27:14.969Z,27.83
2022-12-14T22:29:41.992Z,27.90
2022-12-14T22:32:13.301Z,27.23
2022-12-14T22:34:40.196Z,27.85
2022-12-14T22:37:07.100Z,26.40
2022-12-14T22:39:34.076Z,25.25
2022-12-14T22:42:01.162Z,23.77
2022-12-14T22:44:28.101Z,23.27
2022-12-14T22:46:54.864Z,18.88
2022-12-14T22:49:21.744Z,18.77
2022-12-14T22:51:48.620Z,17.70
2022-12-14T22:54:22.600Z,17.63
2022-12-14T22:56:56.737Z,16.80
2022-12-14T22:59:29.126Z,15.98
2022-12-14T23:01:56.259Z,20.27
2022-12-14T23:04:23.122Z,20.73
2022-12-14T23:06:50.017Z,23.77
2022-12-14T23:09:35.850Z,21.50
2022-12-14T23:12:22.072Z,20.40
2022-12-14T23:15:07.427Z,22.13
2022-12-14T23:17:53.625Z,20.33
2022-12-14T23:20:39.121Z,23.00
2022-12-14T23:23:26.134Z,21.20
2022-12-14T23:26:11.708Z,22.65
2022-12-14T23:28:57.198Z,21.55
2022-12-14T23:31:42.313Z,22.40
2022-12-14T23:34:27.537Z,21.58
2022-12-14T23:37:19.503Z,23.63
2022-12-14T23:40:06.159Z,22.90
2022-12-14T23:42:51.424Z,21.73
2022-12-14T23:45:36.875Z,22.50
2022-12-14T23:48:22.682Z,22.58
2022-12-14T23:51:07.987Z,24.58
2022-12-14T23:53:53.591Z,22.95
2022-12-14T23:56:38.920Z,23.15
2022-12-14T23:59:29.747Z,23.73
